createdAt,value
2018-09-11T00:00:02.618Z,2.80
2018-09-11T00:02:31.140Z,3.00
2018-09-11T00:04:59.639Z,2.80
2018-09-11T00:07:28.209Z,2.90
2018-09-11T00:09:56.754Z,3.00
2018-09-11T00:12:25.281Z,2.77
2018-09-11T00:14:53.819Z,2.53
2018-09-11T00:17:22.375Z,2.67
2018-09-11T00:19:50.991Z,2.23
2018-09-11T00:22:19.516Z,2.83
2018-09-11T00:24:48.100Z,2.60
2018-09-11T00:27:16.919Z,2.87
2018-09-11T00:29:45.431Z,3.00
2018-09-11T00:32:13.922Z,2.70
2018-09-11T00:34:42.425Z,3.07
2018-09-11T00:37:10.962Z,2.70
2018-09-11T00:39:39.498Z,3.10
2018-09-11T00:42:08.055Z,2.80
2018-09-11T00:44:36.596Z,3.30
2018-09-11T00:47:05.121Z,2.73
2018-09-11T00:49:33.663Z,3.30
2018-09-11T00:52:02.304Z,3.13
2018-09-11T00:54:30.869Z,3.50
2018-09-11T00:56:59.557Z,2.97
2018-09-11T00:59:28.050Z,2.90
2018-09-11T01:01:56.586Z,3.30
2018-09-11T01:04:25.100Z,3.20
2018-09-11T01:06:53.674Z,3.40
2018-09-11T01:09:22.211Z,3.40
2018-09-11T01:11:50.752Z,3.10
2018-09-11T01:14:19.302Z,3.00
2018-09-11T01:16:47.805Z,2.73
2018-09-11T01:19:16.389Z,2.60
2018-09-11T01:21:44.917Z,3.27
2018-09-11T01:24:13.427Z,3.30
2018-09-11T01:26:41.971Z,2.73
2018-09-11T01:29:10.524Z,3.13
2018-09-11T01:31:39.055Z,3.20
2018-09-11T01:34:07.871Z,3.10
2018-09-11T01:36:36.481Z,2.50
2018-09-11T01:39:08.078Z,2.77
2018-09-11T01:41:36.578Z,2.57
2018-09-11T01:44:05.176Z,3.33
2018-09-11T01:46:33.658Z,2.90
2018-09-11T01:49:02.228Z,3.13
2018-09-11T01:51:30.753Z,3.00
2018-09-11T01:53:59.532Z,2.80
2018-09-11T01:56:28.346Z,2.53
2018-09-11T01:58:56.875Z,2.60
2018-09-11T02:01:25.712Z,2.43
2018-09-11T02:03:54.282Z,3.33
2018-09-11T02:06:22.831Z,2.87
2018-09-11T02:08:51.358Z,2.70
2018-09-11T02:11:19.878Z,2.47
2018-09-11T02:13:48.426Z,2.47
2018-09-11T02:16:16.969Z,3.13
2018-09-11T02:18:45.508Z,2.23
2018-09-11T02:21:14.052Z,2.70
2018-09-11T02:23:42.564Z,2.70
2018-09-11T02:26:11.141Z,3.13
2018-09-11T02:28:39.660Z,3.00
2018-09-11T02:31:08.165Z,2.97
2018-09-11T02:33:36.688Z,2.83
2018-09-11T02:36:05.197Z,2.60
2018-09-11T02:38:33.730Z,2.57
2018-09-11T02:41:02.244Z,3.03
2018-09-11T02:43:30.833Z,2.67
2018-09-11T02:45:59.371Z,2.80
2018-09-11T02:48:27.927Z,2.60
2018-09-11T02:50:56.444Z,2.70
2018-09-11T02:53:24.940Z,3.00
2018-09-11T02:55:53.471Z,2.83
2018-09-11T02:58:22.010Z,2.73
2018-09-11T03:00:50.574Z,2.50
2018-09-11T03:03:19.108Z,3.03
2018-09-11T03:05:47.723Z,2.73
2018-09-11T03:08:16.198Z,2.83
2018-09-11T03:10:44.708Z,3.60
2018-09-11T03:13:13.222Z,3.10
2018-09-11T03:15:41.754Z,3.27
2018-09-11T03:18:10.251Z,3.10
2018-09-11T03:20:38.767Z,3.00
2018-09-11T03:23:07.280Z,3.75
2018-09-11T03:25:35.792Z,3.60
2018-09-11T03:28:04.318Z,3.97
2018-09-11T03:30:32.806Z,3.90
2018-09-11T03:33:01.371Z,4.20
2018-09-11T03:35:29.915Z,3.10
2018-09-11T03:37:58.414Z,3.42
2018-09-11T03:40:26.968Z,3.60
2018-09-11T03:42:55.519Z,3.45
2018-09-11T03:45:24.042Z,3.70
2018-09-11T03:47:52.556Z,3.20
2018-09-11T03:50:21.086Z,4.00
2018-09-11T03:52:49.610Z,4.85
2018-09-11T03:55:18.122Z,4.30
2018-09-11T03:57:46.618Z,4.62
2018-09-11T04:00:15.125Z,4.10
2018-09-11T04:02:43.657Z,3.52
2018-09-11T04:05:12.190Z,4.00
2018-09-11T04:07:40.780Z,3.87
2018-09-11T04:10:09.307Z,3.00
2018-09-11T04:12:37.835Z,3.80
2018-09-11T04:15:06.402Z,3.83
2018-09-11T04:17:40.888Z,3.75
2018-09-11T04:20:09.457Z,3.80
2018-09-11T04:22:38.910Z,4.08
2018-09-11T04:25:07.765Z,3.72
2018-09-11T04:27:36.276Z,3.87
2018-09-11T04:30:05.000Z,3.60
2018-09-11T04:32:33.556Z,4.20
2018-09-11T04:35:02.068Z,4.00
2018-09-11T04:37:30.659Z,4.03
2018-09-11T04:39:59.166Z,3.80
2018-09-11T04:42:27.673Z,3.20
2018-09-11T04:44:56.188Z,4.28
2018-09-11T04:47:24.680Z,3.65
2018-09-11T04:49:53.237Z,4.33
2018-09-11T04:52:21.755Z,4.03
2018-09-11T04:54:50.268Z,4.45
2018-09-11T04:57:18.768Z,4.17
2018-09-11T04:59:47.294Z,4.17
2018-09-11T05:02:15.804Z,4.15
2018-09-11T05:04:44.340Z,4.00
2018-09-11T05:07:12.852Z,4.50
2018-09-11T05:09:41.420Z,4.55
2018-09-11T05:12:09.976Z,4.17
2018-09-11T05:14:38.492Z,4.00
2018-09-11T05:17:07.022Z,4.00
2018-09-11T05:19:35.555Z,3.85
2018-09-11T05:22:04.134Z,4.33
2018-09-11T05:24:32.649Z,3.50
2018-09-11T05:27:01.243Z,4.37
2018-09-11T05:29:29.754Z,4.42
2018-09-11T05:31:58.319Z,4.15
2018-09-11T05:34:26.850Z,4.15
2018-09-11T05:36:55.362Z,3.95
2018-09-11T05:39:23.890Z,3.30
2018-09-11T05:41:52.410Z,4.25
2018-09-11T05:44:20.955Z,3.95
2018-09-11T05:46:49.498Z,3.35
2018-09-11T05:49:18.052Z,3.72
2018-09-11T05:51:46.564Z,3.80
2018-09-11T05:54:15.145Z,2.90
2018-09-11T05:56:43.664Z,3.87
2018-09-11T05:59:12.169Z,3.72
2018-09-11T06:01:40.768Z,3.37
2018-09-11T06:04:09.284Z,3.95
2018-09-11T06:06:37.886Z,2.98
2018-09-11T06:09:09.795Z,6.00
2018-09-11T06:11:38.340Z,5.87
2018-09-11T06:14:06.876Z,5.75
2018-09-11T06:16:35.477Z,5.85
2018-09-11T06:19:04.210Z,7.20
2018-09-11T06:21:32.794Z,6.90
2018-09-11T06:24:01.308Z,6.95
2018-09-11T06:26:29.859Z,5.60
2018-09-11T06:28:58.586Z,4.70
2018-09-11T06:31:27.121Z,3.80
2018-09-11T06:33:55.649Z,3.33
2018-09-11T06:36:24.223Z,3.67
2018-09-11T06:38:52.797Z,3.80
2018-09-11T06:41:21.448Z,3.77
2018-09-11T06:43:50.226Z,3.55
2018-09-11T06:46:18.762Z,4.00
2018-09-11T06:48:47.324Z,3.40
2018-09-11T06:51:15.873Z,3.77
2018-09-11T06:53:44.539Z,3.70
2018-09-11T06:56:13.037Z,4.35
2018-09-11T06:58:41.595Z,4.22
2018-09-11T07:01:10.146Z,3.70
2018-09-11T07:03:38.660Z,4.15
2018-09-11T07:06:07.195Z,3.47
2018-09-11T07:08:35.752Z,3.80
2018-09-11T07:11:04.266Z,3.75
2018-09-11T07:13:32.778Z,3.58
2018-09-11T07:16:01.379Z,3.37
2018-09-11T07:18:29.894Z,3.40
2018-09-11T07:20:58.414Z,3.80
2018-09-11T07:23:26.924Z,3.33
2018-09-11T07:25:55.456Z,3.30
2018-09-11T07:28:24.006Z,3.50
2018-09-11T07:30:52.740Z,3.20
2018-09-11T07:33:21.234Z,3.22
2018-09-11T07:35:49.835Z,3.77
2018-09-11T07:38:18.368Z,3.80
2018-09-11T07:40:46.920Z,3.77
2018-09-11T07:43:15.422Z,3.10
2018-09-11T07:45:43.944Z,3.00
2018-09-11T07:48:12.488Z,3.47
2018-09-11T07:50:41.023Z,3.57
2018-09-11T07:53:09.532Z,3.10
2018-09-11T07:55:38.052Z,3.67
2018-09-11T07:58:06.644Z,3.60
2018-09-11T08:00:35.121Z,3.17
2018-09-11T08:03:03.751Z,3.40
2018-09-11T08:05:32.231Z,3.20
2018-09-11T08:08:00.766Z,3.30
2018-09-11T08:10:29.285Z,3.20
2018-09-11T08:12:57.807Z,3.53
2018-09-11T08:15:26.322Z,3.60
2018-09-11T08:17:54.881Z,3.33
2018-09-11T08:20:23.421Z,3.63
2018-09-11T08:22:51.962Z,3.60
2018-09-11T08:25:20.475Z,4.30
2018-09-11T08:27:48.978Z,3.60
2018-09-11T08:30:17.474Z,4.33
2018-09-11T08:32:45.988Z,3.80
2018-09-11T08:35:14.487Z,4.50
2018-09-11T08:37:43.018Z,4.70
2018-09-11T08:40:11.543Z,5.40
2018-09-11T08:42:40.023Z,5.50
2018-09-11T08:45:08.690Z,4.03
2018-09-11T08:47:37.202Z,3.73
2018-09-11T08:50:06.017Z,4.10
2018-09-11T08:52:34.673Z,4.60
2018-09-11T08:55:03.100Z,5.10
2018-09-11T08:57:31.606Z,3.87
2018-09-11T09:00:00.116Z,4.53
2018-09-11T09:02:28.690Z,5.33
2018-09-11T09:04:57.196Z,4.90
2018-09-11T09:07:25.712Z,5.20
2018-09-11T09:09:54.243Z,4.83
2018-09-11T09:12:22.805Z,4.70
2018-09-11T09:14:51.316Z,5.87
2018-09-11T09:17:19.902Z,4.33
2018-09-11T09:19:48.418Z,5.23
2018-09-11T09:22:16.967Z,4.53
2018-09-11T09:24:45.547Z,4.10
2018-09-11T09:27:14.121Z,3.60
2018-09-11T09:29:42.709Z,4.40
2018-09-11T09:32:11.292Z,4.27
2018-09-11T09:34:39.834Z,4.30
2018-09-11T09:37:08.458Z,4.57
2018-09-11T09:39:36.980Z,3.90
2018-09-11T09:42:05.621Z,2.90
2018-09-11T09:44:34.133Z,3.07
2018-09-11T09:47:02.672Z,3.00
2018-09-11T09:49:31.200Z,3.70
2018-09-11T09:51:59.726Z,3.50
2018-09-11T09:54:28.237Z,3.83
2018-09-11T09:56:56.750Z,3.77
2018-09-11T09:59:25.259Z,3.57
2018-09-11T10:01:59.172Z,3.10
2018-09-11T10:04:27.722Z,3.50
2018-09-11T10:06:56.292Z,4.43
2018-09-11T10:09:24.792Z,3.00
2018-09-11T10:11:53.340Z,2.97
2018-09-11T10:14:21.799Z,3.67
2018-09-11T10:16:50.315Z,2.50
2018-09-11T10:19:18.827Z,3.20
2018-09-11T10:21:47.330Z,3.13
2018-09-11T10:24:15.877Z,2.83
2018-09-11T10:26:44.391Z,3.27
2018-09-11T10:29:12.916Z,3.20
2018-09-11T10:31:41.441Z,3.00
2018-09-11T10:34:09.963Z,3.37
2018-09-11T10:36:38.468Z,3.47
2018-09-11T10:39:07.738Z,3.50
2018-09-11T10:41:36.297Z,2.77
2018-09-11T10:44:04.828Z,3.30
2018-09-11T10:46:33.548Z,2.77
2018-09-11T10:49:02.062Z,3.13
2018-09-11T10:51:30.542Z,3.00
2018-09-11T10:53:59.076Z,3.30
2018-09-11T10:56:27.646Z,2.63
2018-09-11T10:58:56.201Z,2.50
2018-09-11T11:01:24.766Z,2.90
2018-09-11T11:03:53.350Z,2.67
2018-09-11T11:06:21.916Z,2.60
2018-09-11T11:08:50.432Z,3.00
2018-09-11T11:11:18.968Z,2.60
2018-09-11T11:13:47.468Z,2.73
2018-09-11T11:16:16.038Z,2.63
2018-09-11T11:18:44.561Z,2.33
2018-09-11T11:21:13.076Z,2.70
2018-09-11T11:23:41.602Z,2.50
2018-09-11T11:26:10.146Z,2.30
2018-09-11T11:28:38.659Z,3.00
2018-09-11T11:31:07.152Z,2.80
2018-09-11T11:33:35.684Z,2.63
2018-09-11T11:36:04.225Z,2.90
2018-09-11T11:38:32.728Z,2.90
2018-09-11T11:41:01.272Z,2.70
2018-09-11T11:43:29.786Z,2.80
2018-09-11T11:45:58.284Z,2.87
2018-09-11T11:48:26.798Z,2.70
2018-09-11T11:50:55.306Z,2.57
2018-09-11T11:53:23.862Z,2.70
2018-09-11T11:55:52.374Z,3.07
2018-09-11T11:58:20.875Z,2.70
2018-09-11T12:00:49.430Z,2.70
2018-09-11T12:03:17.931Z,3.23
2018-09-11T12:05:46.446Z,3.00
2018-09-11T12:08:14.999Z,2.50
2018-09-11T12:10:43.518Z,2.90
2018-09-11T12:13:12.029Z,3.70
2018-09-11T12:15:40.576Z,2.60
2018-09-11T12:18:09.048Z,2.80
2018-09-11T12:20:37.556Z,2.43
2018-09-11T12:23:06.252Z,2.83
2018-09-11T12:25:34.839Z,2.50
2018-09-11T12:28:03.271Z,2.90
2018-09-11T12:30:31.787Z,2.57
2018-09-11T12:33:00.727Z,2.83
2018-09-11T12:35:29.281Z,2.70
2018-09-11T12:37:57.790Z,2.77
2018-09-11T12:40:26.284Z,2.37
2018-09-11T12:42:54.785Z,3.40
2018-09-11T12:45:23.310Z,3.00
2018-09-11T12:47:52.317Z,2.63
2018-09-11T12:50:20.456Z,3.20
2018-09-11T12:52:48.951Z,3.33
2018-09-11T12:55:17.445Z,2.80
2018-09-11T12:57:45.972Z,3.53
2018-09-11T13:00:14.570Z,3.50
2018-09-11T13:02:43.181Z,3.00
2018-09-11T13:05:11.757Z,2.83
2018-09-11T13:07:40.323Z,3.47
2018-09-11T13:10:08.958Z,3.00
2018-09-11T13:12:37.521Z,3.03
2018-09-11T13:15:06.573Z,3.50
2018-09-11T13:17:35.176Z,3.30
2018-09-11T13:20:03.811Z,3.07
2018-09-11T13:22:32.344Z,2.90
2018-09-11T13:25:01.011Z,3.23
2018-09-11T13:27:29.564Z,3.20
2018-09-11T13:29:58.225Z,3.60
2018-09-11T13:32:26.793Z,3.80
2018-09-11T13:34:55.277Z,3.10
2018-09-11T13:37:23.801Z,3.87
2018-09-11T13:39:52.340Z,3.53
2018-09-11T13:42:20.896Z,3.40
2018-09-11T13:44:49.420Z,3.57
2018-09-11T13:47:18.165Z,3.37
2018-09-11T13:49:46.616Z,3.13
2018-09-11T13:52:15.136Z,3.13
2018-09-11T13:54:43.695Z,3.40
2018-09-11T13:57:12.237Z,3.33
2018-09-11T13:59:40.776Z,3.30
2018-09-11T14:02:09.414Z,3.30
2018-09-11T14:04:37.925Z,3.70
2018-09-11T14:07:06.471Z,3.00
2018-09-11T14:09:35.015Z,3.30
2018-09-11T14:12:03.570Z,3.50
2018-09-11T14:14:32.140Z,3.60
2018-09-11T14:17:00.687Z,3.33
2018-09-11T14:19:29.266Z,3.73
2018-09-11T14:21:57.814Z,3.30
2018-09-11T14:24:26.349Z,3.70
2018-09-11T14:26:55.027Z,3.20
2018-09-11T14:29:23.535Z,3.47
2018-09-11T14:31:52.034Z,3.70
2018-09-11T14:34:20.659Z,3.63
2018-09-11T14:36:49.212Z,3.77
2018-09-11T14:39:17.737Z,3.90
2018-09-11T14:41:46.280Z,3.37
2018-09-11T14:44:14.800Z,3.20
2018-09-11T14:46:43.395Z,4.00
2018-09-11T14:49:11.933Z,4.10
2018-09-11T14:51:40.473Z,3.03
2018-09-11T14:54:09.012Z,3.03
2018-09-11T14:56:37.512Z,3.70
2018-09-11T14:59:06.287Z,3.80
2018-09-11T15:01:34.817Z,3.70
2018-09-11T15:04:03.486Z,3.40
2018-09-11T15:06:32.007Z,3.40
2018-09-11T15:09:00.989Z,3.47
2018-09-11T15:11:29.565Z,2.83
2018-09-11T15:13:58.138Z,3.37
2018-09-11T15:16:27.123Z,3.50
2018-09-11T15:18:55.831Z,3.80
2018-09-11T15:21:24.380Z,3.67
2018-09-11T15:23:52.945Z,3.33
2018-09-11T15:26:21.562Z,3.20
2018-09-11T15:28:50.187Z,3.53
2018-09-11T15:31:18.727Z,3.20
2018-09-11T15:33:47.310Z,3.50
2018-09-11T15:36:15.838Z,4.00
2018-09-11T15:38:44.386Z,3.30
2018-09-11T15:41:12.942Z,3.90
2018-09-11T15:43:42.126Z,3.93
2018-09-11T15:46:10.627Z,3.37
2018-09-11T15:48:39.352Z,3.47
2018-09-11T15:51:07.832Z,3.77
2018-09-11T15:53:36.386Z,3.53
2018-09-11T15:56:05.866Z,3.80
2018-09-11T15:58:35.108Z,3.90
2018-09-11T16:01:03.652Z,3.13
2018-09-11T16:03:32.229Z,3.57
2018-09-11T16:06:00.802Z,3.40
2018-09-11T16:08:29.286Z,3.50
2018-09-11T16:10:57.870Z,3.73
2018-09-11T16:13:26.388Z,3.73
2018-09-11T16:15:54.910Z,3.77
2018-09-11T16:18:23.431Z,3.60
2018-09-11T16:20:51.986Z,3.00
2018-09-11T16:23:20.518Z,3.10
2018-09-11T16:25:49.070Z,3.70
2018-09-11T16:28:18.334Z,4.10
2018-09-11T16:30:46.868Z,3.40
2018-09-11T16:33:15.504Z,3.60
2018-09-11T16:35:44.001Z,3.40
2018-09-11T16:38:12.498Z,3.30
2018-09-11T16:40:41.095Z,3.40
2018-09-11T16:43:09.592Z,3.90
2018-09-11T16:45:38.114Z,3.10
2018-09-11T16:48:06.642Z,3.63
2018-09-11T16:50:35.167Z,2.70
2018-09-11T16:53:04.584Z,3.07
2018-09-11T16:55:33.187Z,3.23
2018-09-11T16:58:03.434Z,3.40
2018-09-11T17:00:31.980Z,3.50
2018-09-11T17:03:00.495Z,3.63
2018-09-11T17:05:29.042Z,3.07
2018-09-11T17:07:58.648Z,3.50
2018-09-11T17:10:27.156Z,3.33
2018-09-11T17:12:55.711Z,3.37
2018-09-11T17:15:24.230Z,3.80
2018-09-11T17:17:52.764Z,3.30
2018-09-11T17:20:22.042Z,3.57
2018-09-11T17:22:50.624Z,3.27
2018-09-11T17:25:19.120Z,3.30
2018-09-11T17:27:47.711Z,3.63
2018-09-11T17:30:16.224Z,4.10
2018-09-11T17:32:44.812Z,3.80
2018-09-11T17:35:13.331Z,2.87
2018-09-11T17:37:41.874Z,3.47
2018-09-11T17:40:10.394Z,3.60
2018-09-11T17:42:38.970Z,3.23
2018-09-11T17:45:07.674Z,4.10
2018-09-11T17:47:36.274Z,4.10
2018-09-11T17:50:04.928Z,3.47
2018-09-11T17:52:33.960Z,3.83
2018-09-11T17:55:02.511Z,3.83
2018-09-11T17:57:31.030Z,2.80
2018-09-11T17:59:59.546Z,4.37
2018-09-11T18:02:28.048Z,5.27
2018-09-11T18:04:56.578Z,6.40
2018-09-11T18:07:25.087Z,5.30
2018-09-11T18:09:53.589Z,4.27
2018-09-11T18:12:22.111Z,4.13
2018-09-11T18:14:50.628Z,3.87
2018-09-11T18:17:19.148Z,4.03
2018-09-11T18:19:47.673Z,5.40
2018-09-11T18:22:16.213Z,7.73
2018-09-11T18:24:44.808Z,7.50
2018-09-11T18:27:13.661Z,6.73
2018-09-11T18:29:42.217Z,6.40
2018-09-11T18:32:10.732Z,7.80
2018-09-11T18:34:40.272Z,7.80
2018-09-11T18:37:08.947Z,6.80
2018-09-11T18:39:37.499Z,5.80
2018-09-11T18:42:06.158Z,5.40
2018-09-11T18:44:34.956Z,4.73
2018-09-11T18:47:03.807Z,7.40
2018-09-11T18:49:32.404Z,8.20
2018-09-11T18:52:01.010Z,8.70
2018-09-11T18:54:29.588Z,9.70
2018-09-11T18:56:58.597Z,8.60
2018-09-11T18:59:27.112Z,6.80
2018-09-11T19:01:55.632Z,5.63
2018-09-11T19:04:24.350Z,4.70
2018-09-11T19:06:52.906Z,6.53
2018-09-11T19:09:21.469Z,10.53
2018-09-11T19:11:50.018Z,14.13
2018-09-11T19:14:18.562Z,12.97
2018-09-11T19:16:47.179Z,9.37
2018-09-11T19:19:15.651Z,9.97
2018-09-11T19:21:44.246Z,10.70
2018-09-11T19:24:12.777Z,9.87
2018-09-11T19:26:41.411Z,6.80
2018-09-11T19:29:10.034Z,5.20
2018-09-11T19:31:38.746Z,4.80
2018-09-11T19:34:07.509Z,5.93
2018-09-11T19:36:36.081Z,5.77
2018-09-11T19:39:06.415Z,5.40
2018-09-11T19:41:34.928Z,9.57
2018-09-11T19:44:03.794Z,18.57
2018-09-11T19:46:32.325Z,19.10
2018-09-11T19:49:01.195Z,14.90
2018-09-11T19:51:29.826Z,10.80
2018-09-11T19:53:58.548Z,7.77
2018-09-11T19:56:27.067Z,5.43
2018-09-11T19:58:55.680Z,4.90
2018-09-11T20:01:24.262Z,4.30
2018-09-11T20:03:52.877Z,4.33
2018-09-11T20:06:21.411Z,4.20
2018-09-11T20:08:50.021Z,3.73
2018-09-11T20:11:18.603Z,4.60
2018-09-11T20:13:47.177Z,4.73
2018-09-11T20:16:15.737Z,3.97
2018-09-11T20:18:44.298Z,4.20
2018-09-11T20:21:12.847Z,4.13
2018-09-11T20:23:41.369Z,4.20
2018-09-11T20:26:10.069Z,4.83
2018-09-11T20:28:38.625Z,3.73
2018-09-11T20:31:07.196Z,4.07
2018-09-11T20:33:35.845Z,4.00
2018-09-11T20:36:04.370Z,3.83
2018-09-11T20:38:33.049Z,3.97
2018-09-11T20:41:01.596Z,3.70
2018-09-11T20:43:30.131Z,3.90
2018-09-11T20:45:58.655Z,3.77
2018-09-11T20:48:27.160Z,3.67
2018-09-11T20:50:55.727Z,4.20
2018-09-11T20:53:24.270Z,3.70
2018-09-11T20:55:52.820Z,4.10
2018-09-11T20:58:21.375Z,3.43
2018-09-11T21:00:50.488Z,4.43
2018-09-11T21:03:19.006Z,4.67
2018-09-11T21:05:47.542Z,3.70
2018-09-11T21:08:16.086Z,3.63
2018-09-11T21:10:44.617Z,3.50
2018-09-11T21:13:13.160Z,4.40
2018-09-11T21:15:41.684Z,4.13
2018-09-11T21:18:10.246Z,3.97
2018-09-11T21:20:39.004Z,3.73
2018-09-11T21:23:07.553Z,4.10
2018-09-11T21:25:36.067Z,3.77
2018-09-11T21:28:04.641Z,4.10
2018-09-11T21:30:33.180Z,4.10
2018-09-11T21:33:01.845Z,3.67
2018-09-11T21:35:30.340Z,4.43
2018-09-11T21:37:58.858Z,4.10
2018-09-11T21:40:27.391Z,4.40
2018-09-11T21:42:55.914Z,3.40
2018-09-11T21:45:24.428Z,4.27
2018-09-11T21:47:52.946Z,4.00
2018-09-11T21:50:21.472Z,4.03
2018-09-11T21:52:50.068Z,3.53
2018-09-11T21:55:18.577Z,3.80
2018-09-11T21:57:47.131Z,3.87
2018-09-11T22:00:15.722Z,3.72
2018-09-11T22:02:44.220Z,3.50
2018-09-11T22:05:12.750Z,4.63
2018-09-11T22:07:41.292Z,4.12
2018-09-11T22:10:11.051Z,3.80
2018-09-11T22:12:39.621Z,3.58
2018-09-11T22:15:09.331Z,3.40
2018-09-11T22:17:37.976Z,3.90
2018-09-11T22:20:06.758Z,3.33
2018-09-11T22:22:35.283Z,4.35
2018-09-11T22:25:04.557Z,3.42
2018-09-11T22:27:33.080Z,4.00
2018-09-11T22:30:01.640Z,4.12
2018-09-11T22:32:30.152Z,4.30
2018-09-11T22:34:58.656Z,3.67
2018-09-11T22:37:27.247Z,3.30
2018-09-11T22:39:55.771Z,4.28
2018-09-11T22:42:24.303Z,3.50
2018-09-11T22:44:52.885Z,3.95
2018-09-11T22:47:21.402Z,4.58
2018-09-11T22:49:49.930Z,5.53
2018-09-11T22:52:18.457Z,4.60
2018-09-11T22:54:47.094Z,4.22
2018-09-11T22:57:15.722Z,3.77
2018-09-11T22:59:44.224Z,5.15
2018-09-11T23:02:12.753Z,3.75
2018-09-11T23:04:41.288Z,4.70
2018-09-11T23:07:09.978Z,6.55
2018-09-11T23:09:38.498Z,9.10
2018-09-11T23:12:07.042Z,17.65
2018-09-11T23:14:35.572Z,14.18
2018-09-11T23:17:04.117Z,9.00
2018-09-11T23:19:32.640Z,5.10
2018-09-11T23:22:01.394Z,4.70
2018-09-11T23:24:29.934Z,3.92
2018-09-11T23:26:58.486Z,4.62
2018-09-11T23:29:27.010Z,3.95
2018-09-11T23:31:55.545Z,3.50
2018-09-11T23:34:24.081Z,3.45
2018-09-11T23:36:52.654Z,3.95
2018-09-11T23:39:21.164Z,3.98
2018-09-11T23:41:49.708Z,5.03
2018-09-11T23:44:18.325Z,5.10
2018-09-11T23:46:46.858Z,4.90
2018-09-11T23:49:15.364Z,4.50
2018-09-11T23:51:43.905Z,3.87
2018-09-11T23:54:12.458Z,4.42
2018-09-11T23:56:40.985Z,3.60
2018-09-11T23:59:09.500Z,4.87
